createdAt,value
2022-12-07T00:00:40.811Z,46
2022-12-07T00:01:57.107Z,46
2022-12-07T00:03:12.435Z,45.4
2022-12-07T00:04:28.726Z,45.7
2022-12-07T00:05:45.008Z,48.5
2022-12-07T00:07:01.306Z,45.7
2022-12-07T00:08:17.581Z,46.2
2022-12-07T00:09:33.897Z,51
2022-12-07T00:10:50.188Z,52.5
2022-12-07T00:12:06.484Z,57.3
2022-12-07T00:13:22.766Z,49.1
2022-12-07T00:14:39.074Z,45.2
2022-12-07T00:15:55.357Z,46.5
2022-12-07T00:17:11.653Z,45.6
2022-12-07T00:18:27.937Z,45.9
2022-12-07T00:19:44.243Z,45.6
2022-12-07T00:20:59.544Z,49.9
2022-12-07T00:22:15.842Z,48.8
2022-12-07T00:23:32.147Z,47.2
2022-12-07T00:24:48.437Z,46.4
2022-12-07T00:26:04.727Z,47
2022-12-07T00:27:21.021Z,46.8
2022-12-07T00:28:37.310Z,49.4
2022-12-07T00:29:53.600Z,50.7
2022-12-07T00:31:09.904Z,47.3
2022-12-07T00:32:26.202Z,56.8
2022-12-07T00:33:42.509Z,46.4
2022-12-07T00:34:58.794Z,45.6
2022-12-07T00:36:15.091Z,46
2022-12-07T00:37:31.370Z,47.6
2022-12-07T00:40:02.984Z,45.7
2022-12-07T00:41:19.278Z,45.9
2022-12-07T00:42:35.560Z,45.6
2022-12-07T00:43:51.881Z,45.9
2022-12-07T00:45:08.158Z,48.3
2022-12-07T00:46:24.458Z,49.9
2022-12-07T00:47:40.761Z,56.5
2022-12-07T00:48:57.036Z,51.4
2022-12-07T00:50:13.333Z,48.9
2022-12-07T00:51:29.627Z,45.7
2022-12-07T00:52:45.930Z,48.8
2022-12-07T00:54:02.215Z,45.7
2022-12-07T00:55:18.520Z,46.7
2022-12-07T00:56:33.836Z,45.9
2022-12-07T00:57:50.114Z,46.5
2022-12-07T00:59:06.407Z,53.3
2022-12-07T01:00:22.690Z,46.4
2022-12-07T01:01:38.993Z,51.7
2022-12-07T01:02:55.285Z,49.6
2022-12-07T01:04:11.585Z,51.8
2022-12-07T01:05:27.882Z,48
2022-12-07T01:06:44.161Z,45.6
2022-12-07T01:08:00.471Z,45.7
2022-12-07T01:09:16.756Z,48.5
2022-12-07T01:10:33.056Z,46.7
2022-12-07T01:11:49.342Z,46.2
2022-12-07T01:13:05.633Z,47
2022-12-07T01:14:20.961Z,45.6
2022-12-07T01:15:37.236Z,45.7
2022-12-07T01:16:53.532Z,47.8
2022-12-07T01:18:09.852Z,45.6
2022-12-07T01:19:26.130Z,48.5
2022-12-07T01:20:42.444Z,49.3
2022-12-07T01:21:58.727Z,55.9
2022-12-07T01:23:15.014Z,47.8
2022-12-07T01:24:31.313Z,46.2
2022-12-07T01:25:47.611Z,46.7
2022-12-07T01:27:03.897Z,45.7
2022-12-07T01:28:20.198Z,52.6
2022-12-07T01:29:36.480Z,47
2022-12-07T01:30:52.787Z,45.6
2022-12-07T01:32:08.086Z,45.7
2022-12-07T01:33:24.389Z,45.9
2022-12-07T01:34:40.671Z,45.9
2022-12-07T01:35:56.976Z,47.6
2022-12-07T01:37:13.285Z,50.7
2022-12-07T01:38:29.554Z,49.7
2022-12-07T01:39:45.861Z,46.8
2022-12-07T01:41:02.158Z,46.2
2022-12-07T01:42:18.444Z,47.2
2022-12-07T01:43:34.725Z,46.2
2022-12-07T01:44:51.022Z,46.4
2022-12-07T01:46:07.314Z,46
2022-12-07T01:47:23.618Z,46.5
2022-12-07T01:48:39.920Z,46
2022-12-07T01:49:55.211Z,46.4
2022-12-07T01:51:11.526Z,48.1
2022-12-07T01:52:27.829Z,45.6
2022-12-07T01:53:44.097Z,61
2022-12-07T01:55:00.406Z,47.2
2022-12-07T01:56:16.707Z,46.8
2022-12-07T01:57:32.988Z,49.7
2022-12-07T01:58:49.293Z,50.5
2022-12-07T02:00:05.590Z,61
2022-12-07T02:01:21.873Z,48
2022-12-07T02:02:38.171Z,46.5
2022-12-07T02:03:54.469Z,46
2022-12-07T02:05:10.763Z,46.5
2022-12-07T02:06:27.056Z,46
2022-12-07T02:07:42.343Z,46.2
2022-12-07T02:08:58.658Z,45.6
2022-12-07T02:10:14.962Z,46.4
2022-12-07T02:11:31.242Z,47.6
2022-12-07T02:12:47.548Z,47.8
2022-12-07T02:14:03.818Z,45.7
2022-12-07T02:15:20.109Z,47.8
2022-12-07T02:16:36.401Z,50.7
2022-12-07T02:17:52.708Z,49.6
2022-12-07T02:19:08.989Z,45.9
2022-12-07T02:20:25.286Z,47
2022-12-07T02:21:41.597Z,46.8
2022-12-07T02:22:57.907Z,46
2022-12-07T02:24:14.173Z,47
2022-12-07T02:25:29.490Z,47.2
2022-12-07T02:26:45.785Z,46.5
2022-12-07T02:28:02.064Z,47.6
2022-12-07T02:29:18.360Z,46.7
2022-12-07T02:30:34.657Z,58.3
2022-12-07T02:31:50.947Z,47.6
2022-12-07T02:33:07.260Z,51.2
2022-12-07T02:34:23.553Z,50.9
2022-12-07T02:35:39.855Z,47.8
2022-12-07T02:36:56.150Z,47.3
2022-12-07T02:38:12.447Z,47
2022-12-07T02:39:28.718Z,46
2022-12-07T02:40:45.008Z,48.3
2022-12-07T02:42:01.319Z,46
2022-12-07T02:43:16.621Z,47
2022-12-07T02:44:32.925Z,46.5
2022-12-07T02:45:49.224Z,47.2
2022-12-07T02:47:05.507Z,48.6
2022-12-07T02:48:21.810Z,47.6
2022-12-07T02:49:38.093Z,47.6
2022-12-07T02:50:54.392Z,46.7
2022-12-07T02:52:10.692Z,55.9
2022-12-07T02:53:26.973Z,54.9
2022-12-07T02:54:43.261Z,61.7
2022-12-07T02:55:59.556Z,47.2
2022-12-07T02:57:15.854Z,49.6
2022-12-07T02:58:32.143Z,47
2022-12-07T02:59:47.465Z,48.5
2022-12-07T03:01:03.747Z,48.9
2022-12-07T03:02:20.044Z,47.8
2022-12-07T03:03:36.331Z,47.2
2022-12-07T03:04:52.654Z,50.1
2022-12-07T03:06:08.925Z,47.3
2022-12-07T03:07:25.227Z,50.1
2022-12-07T03:08:41.511Z,50.4
2022-12-07T03:09:57.804Z,52.3
2022-12-07T03:11:14.094Z,58.1
2022-12-07T03:12:30.422Z,47
2022-12-07T03:13:46.690Z,46.8
2022-12-07T03:15:02.993Z,48.9
2022-12-07T03:16:18.293Z,48
2022-12-07T03:17:34.593Z,50.7
2022-12-07T03:18:50.883Z,49.1
2022-12-07T03:20:07.188Z,47.5
2022-12-07T03:21:23.484Z,47.5
2022-12-07T03:22:39.768Z,48.3
2022-12-07T03:23:56.078Z,48.3
2022-12-07T03:25:12.355Z,47.3
2022-12-07T03:26:28.658Z,54.4
2022-12-07T03:27:44.949Z,47.3
2022-12-07T03:29:01.244Z,51.2
2022-12-07T03:30:17.523Z,49.7
2022-12-07T03:31:33.824Z,58.6
2022-12-07T03:32:49.144Z,51.2
2022-12-07T03:34:05.446Z,53.1
2022-12-07T03:35:21.730Z,47
2022-12-07T03:36:38.020Z,47.6
2022-12-07T03:37:54.306Z,47.2
2022-12-07T03:39:10.598Z,51.7
2022-12-07T03:40:26.910Z,47.8
2022-12-07T03:41:43.200Z,51.4
2022-12-07T03:42:59.510Z,48
2022-12-07T03:44:15.798Z,48.1
2022-12-07T03:45:32.085Z,47.8
2022-12-07T03:46:48.370Z,68.4
2022-12-07T03:48:04.677Z,48.6
2022-12-07T03:49:19.985Z,48.5
2022-12-07T03:50:36.259Z,52.6
2022-12-07T03:51:52.572Z,50.5
2022-12-07T03:53:08.875Z,58.8
2022-12-07T03:54:25.157Z,48.9
2022-12-07T03:55:41.450Z,48.8
2022-12-07T03:56:57.756Z,48.9
2022-12-07T03:58:14.037Z,49.4
2022-12-07T03:59:30.319Z,49.1
2022-12-07T04:00:46.633Z,49.1
2022-12-07T04:02:01.948Z,51.4
2022-12-07T04:03:18.230Z,54.9
2022-12-07T04:04:34.548Z,49.3
2022-12-07T04:05:50.827Z,50.5
2022-12-07T04:07:07.119Z,53.6
2022-12-07T04:08:23.416Z,50.7
2022-12-07T04:09:39.717Z,56.8
2022-12-07T04:10:56.016Z,53.1
2022-12-07T04:12:12.307Z,62.8
2022-12-07T04:13:28.594Z,51
2022-12-07T04:14:44.887Z,51.4
2022-12-07T04:16:01.180Z,49.9
2022-12-07T04:17:17.485Z,64.9
2022-12-07T04:18:32.784Z,60.9
2022-12-07T04:19:49.068Z,52.6
2022-12-07T04:21:05.371Z,51.2
2022-12-07T04:22:21.667Z,51.2
2022-12-07T04:23:37.960Z,53.3
2022-12-07T04:24:54.266Z,62
2022-12-07T04:26:10.548Z,53.9
2022-12-07T04:27:26.847Z,57.2
2022-12-07T04:28:43.142Z,52.8
2022-12-07T04:29:59.433Z,52.3
2022-12-07T04:31:15.736Z,58.8
2022-12-07T04:32:32.022Z,54.3
2022-12-07T04:33:48.327Z,51.4
2022-12-07T04:35:03.635Z,51.5
2022-12-07T04:36:19.926Z,60.9
2022-12-07T04:37:36.213Z,52.8
2022-12-07T04:38:52.520Z,51.8
2022-12-07T04:40:08.796Z,50.5
2022-12-07T04:41:25.109Z,53
2022-12-07T04:42:41.392Z,58.9
2022-12-07T04:43:57.691Z,56
2022-12-07T04:45:13.985Z,53.4
2022-12-07T04:46:30.278Z,54.4
2022-12-07T04:47:46.569Z,53
2022-12-07T04:49:02.865Z,51.7
2022-12-07T04:50:19.156Z,52.5
2022-12-07T04:51:35.453Z,53.8
2022-12-07T04:52:50.760Z,57.3
2022-12-07T04:54:07.055Z,53.3
2022-12-07T04:55:23.365Z,52.2
2022-12-07T04:56:39.654Z,64.7
2022-12-07T04:57:55.947Z,51.7
2022-12-07T04:59:12.232Z,60.4
2022-12-07T05:00:28.521Z,51
2022-12-07T05:01:44.822Z,55.7
2022-12-07T05:03:01.116Z,51.4
2022-12-07T05:04:17.411Z,52.6
2022-12-07T05:05:33.712Z,51.8
2022-12-07T05:06:49.995Z,52.8
2022-12-07T05:08:06.287Z,49.7
2022-12-07T05:09:21.618Z,53.8
2022-12-07T05:10:37.907Z,53.1
2022-12-07T05:11:54.185Z,53
2022-12-07T05:13:10.486Z,53
2022-12-07T05:14:26.778Z,52.5
2022-12-07T05:15:43.069Z,51.7
2022-12-07T05:16:59.381Z,58.4
2022-12-07T05:18:15.667Z,55.7
2022-12-07T05:19:31.958Z,55.4
2022-12-07T05:20:48.247Z,60.4
2022-12-07T05:22:04.538Z,53.9
2022-12-07T05:23:20.843Z,54.7
2022-12-07T05:24:37.146Z,56.7
2022-12-07T05:25:52.448Z,51.5
2022-12-07T05:27:08.743Z,54.3
2022-12-07T05:28:25.033Z,53.3
2022-12-07T05:29:41.327Z,55.7
2022-12-07T05:30:57.619Z,54.4
2022-12-07T05:32:13.924Z,52.5
2022-12-07T05:33:30.213Z,53.9
2022-12-07T05:34:46.502Z,54.4
2022-12-07T05:36:02.799Z,55.5
2022-12-07T05:37:19.103Z,53.9
2022-12-07T05:38:35.379Z,55.5
2022-12-07T05:39:51.685Z,63.3
2022-12-07T05:41:07.985Z,58.3
2022-12-07T05:42:24.395Z,58.9
2022-12-07T05:43:40.685Z,56
2022-12-07T05:44:56.976Z,55.9
2022-12-07T05:46:13.276Z,59.4
2022-12-07T05:47:29.563Z,55.4
2022-12-07T05:48:45.856Z,64.7
2022-12-07T05:50:02.168Z,58.3
2022-12-07T05:51:18.445Z,53.8
2022-12-07T05:52:34.745Z,55.9
2022-12-07T05:53:51.030Z,60.2
2022-12-07T05:55:07.000Z,60.1
2022-12-07T05:56:23.634Z,62.5
2022-12-07T05:57:39.914Z,55.9
2022-12-07T05:58:55.225Z,54.7
2022-12-07T06:00:11.529Z,59.2
2022-12-07T06:01:27.816Z,56.7
2022-12-07T06:02:44.105Z,58.6
2022-12-07T06:04:00.403Z,63.1
2022-12-07T06:05:16.705Z,53.6
2022-12-07T06:06:33.002Z,60.7
2022-12-07T06:07:49.282Z,55.9
2022-12-07T06:09:05.579Z,64.1
2022-12-07T06:10:21.881Z,54.9
2022-12-07T06:11:38.169Z,56.5
2022-12-07T06:12:54.472Z,59.2
2022-12-07T06:14:10.764Z,57.5
2022-12-07T06:15:27.049Z,53.8
2022-12-07T06:16:42.368Z,59.4
2022-12-07T06:17:58.660Z,54.6
2022-12-07T06:19:14.954Z,60.5
2022-12-07T06:20:31.250Z,58.9
2022-12-07T06:21:47.560Z,59.4
2022-12-07T06:23:03.780Z,59.7
2022-12-07T06:24:20.075Z,57.3
2022-12-07T06:25:36.337Z,57.6
2022-12-07T06:26:52.568Z,60.4
2022-12-07T06:28:08.813Z,57
2022-12-07T06:29:25.060Z,60.5
2022-12-07T06:30:41.302Z,58.4
2022-12-07T06:31:57.552Z,56.8
2022-12-07T06:33:13.779Z,56.5
2022-12-07T06:35:45.289Z,59.1
2022-12-07T06:37:01.530Z,55.9
2022-12-07T06:38:17.765Z,58.9
2022-12-07T06:39:34.002Z,60.1
2022-12-07T06:40:50.250Z,57.8
2022-12-07T06:42:06.476Z,56.3
2022-12-07T06:43:22.716Z,56.2
2022-12-07T06:44:38.958Z,58.6
2022-12-07T06:45:55.205Z,58.9
2022-12-07T06:47:11.447Z,56.2
2022-12-07T06:48:27.692Z,55.7
2022-12-07T06:49:43.930Z,61.5
2022-12-07T06:51:00.163Z,59.1
2022-12-07T06:52:15.425Z,58.9
2022-12-07T06:53:31.674Z,55.9
2022-12-07T06:54:47.906Z,57.3
2022-12-07T06:56:04.141Z,59.4
2022-12-07T06:57:20.386Z,58.9
2022-12-07T06:58:36.617Z,58
2022-12-07T06:59:52.862Z,58.3
2022-12-07T07:01:09.000Z,56.5
2022-12-07T07:02:25.339Z,57.5
2022-12-07T07:03:41.592Z,57.5
2022-12-07T07:04:57.827Z,61.3
2022-12-07T07:06:14.058Z,59.2
2022-12-07T07:07:30.303Z,58.3
2022-12-07T07:08:46.538Z,59.6
2022-12-07T07:10:01.796Z,61.3
2022-12-07T07:11:18.039Z,65.9
2022-12-07T07:12:34.276Z,57.8
2022-12-07T07:13:50.520Z,64.7
2022-12-07T07:15:06.766Z,57.8
2022-12-07T07:16:23.007Z,64.9
2022-12-07T07:17:39.247Z,73.3
2022-12-07T07:18:55.488Z,69.1
2022-12-07T07:20:11.721Z,61
2022-12-07T07:21:27.958Z,55.1
2022-12-07T07:22:44.201Z,58.4
2022-12-07T07:24:00.454Z,57
2022-12-07T07:25:16.691Z,58.1
2022-12-07T07:26:31.934Z,58.3
2022-12-07T07:27:48.180Z,53.9
2022-12-07T07:29:04.418Z,54.7
2022-12-07T07:30:20.652Z,63.9
2022-12-07T07:31:36.000Z,60.1
2022-12-07T07:32:53.153Z,59.1
2022-12-07T07:34:09.382Z,61.3
2022-12-07T07:35:25.615Z,57.8
2022-12-07T07:36:41.863Z,58.9
2022-12-07T07:37:58.099Z,60.1
2022-12-07T07:39:14.337Z,63.9
2022-12-07T07:40:30.582Z,59.4
2022-12-07T07:41:46.819Z,60.5
2022-12-07T07:43:02.089Z,58.4
2022-12-07T07:44:18.315Z,60.9
2022-12-07T07:45:34.565Z,57.5
2022-12-07T07:46:50.801Z,58.1
2022-12-07T07:48:07.043Z,62
2022-12-07T07:49:23.275Z,60.7
2022-12-07T07:50:39.524Z,56.8
2022-12-07T07:51:55.752Z,58.6
2022-12-07T07:53:12.002Z,58.3
2022-12-07T07:54:28.237Z,60.2
2022-12-07T07:55:44.471Z,57.2
2022-12-07T07:57:00.716Z,57
2022-12-07T07:58:16.961Z,56.5
2022-12-07T07:59:32.226Z,59.6
2022-12-07T08:00:48.452Z,58.8
2022-12-07T08:02:04.697Z,58.1
2022-12-07T08:03:20.941Z,58
2022-12-07T08:04:37.180Z,55.4
2022-12-07T08:05:53.424Z,57.3
2022-12-07T08:07:09.657Z,56.8
2022-12-07T08:08:25.901Z,62.8
2022-12-07T08:09:42.141Z,57.2
2022-12-07T08:10:58.379Z,61
2022-12-07T08:12:14.622Z,60.7
2022-12-07T08:13:30.851Z,59.6
2022-12-07T08:14:47.100Z,58.8
2022-12-07T08:16:02.363Z,54.9
2022-12-07T08:17:18.587Z,56.3
2022-12-07T08:18:33.858Z,56.8
2022-12-07T08:19:50.094Z,56.3
2022-12-07T08:21:06.343Z,57
2022-12-07T08:22:22.585Z,61.8
2022-12-07T08:23:38.000Z,57.3
2022-12-07T08:24:55.054Z,60.5
2022-12-07T08:26:11.289Z,57
2022-12-07T08:27:27.538Z,58.9
2022-12-07T08:28:43.794Z,55.4
2022-12-07T08:30:00.018Z,59.1
2022-12-07T08:31:16.261Z,56.5
2022-12-07T08:32:32.509Z,58.4
2022-12-07T08:33:48.742Z,56.7
2022-12-07T08:35:05.099Z,55.9
2022-12-07T08:36:21.346Z,55.7
2022-12-07T08:37:37.578Z,58
2022-12-07T08:38:53.824Z,63.9
2022-12-07T08:40:10.074Z,57.6
2022-12-07T08:41:26.297Z,58
2022-12-07T08:42:42.538Z,58
2022-12-07T08:43:58.773Z,57
2022-12-07T08:45:15.024Z,63.1
2022-12-07T08:46:31.262Z,58.1
2022-12-07T08:47:47.492Z,61.3
2022-12-07T08:49:03.733Z,58.4
2022-12-07T08:50:19.971Z,57.5
2022-12-07T08:51:35.229Z,59.9
2022-12-07T08:52:51.485Z,59.2
2022-12-07T08:54:07.718Z,59.7
2022-12-07T08:55:23.963Z,59.7
2022-12-07T08:56:40.198Z,59.7
2022-12-07T08:57:56.438Z,55.9
2022-12-07T08:59:12.680Z,56.7
2022-12-07T09:00:28.913Z,57.6
2022-12-07T09:01:45.153Z,57.8
2022-12-07T09:03:01.394Z,58.3
2022-12-07T09:04:17.637Z,56.2
2022-12-07T09:05:33.887Z,58.9
2022-12-07T09:06:50.111Z,57.6
2022-12-07T09:08:05.367Z,56
2022-12-07T09:09:21.616Z,58.6
2022-12-07T09:10:37.860Z,56.5
2022-12-07T09:11:54.099Z,56.5
2022-12-07T09:13:10.326Z,62.3
2022-12-07T09:14:26.567Z,56.8
2022-12-07T09:15:42.806Z,59.4
2022-12-07T09:16:59.056Z,57.3
2022-12-07T09:18:15.285Z,64.2
2022-12-07T09:19:31.528Z,60.4
2022-12-07T09:20:47.765Z,58.8
2022-12-07T09:22:04.027Z,60.9
2022-12-07T09:23:20.251Z,63
2022-12-07T09:24:35.499Z,61.7
2022-12-07T09:25:51.747Z,62.3
2022-12-07T09:27:07.998Z,56.7
2022-12-07T09:28:24.224Z,58.4
2022-12-07T09:29:40.459Z,60.5
2022-12-07T09:30:56.716Z,60.1
2022-12-07T09:32:12.947Z,59.2
2022-12-07T09:33:29.194Z,62.1
2022-12-07T09:34:45.427Z,59.7
2022-12-07T09:36:01.677Z,58.9
2022-12-07T09:37:17.899Z,57.6
2022-12-07T09:38:34.143Z,55.9
2022-12-07T09:39:50.388Z,62.5
2022-12-07T09:41:05.651Z,57.8
2022-12-07T09:42:21.878Z,54.7
2022-12-07T09:43:38.117Z,55.4
2022-12-07T09:44:54.358Z,57.6
2022-12-07T09:46:10.600Z,57
2022-12-07T09:47:26.851Z,54.9
2022-12-07T09:48:43.082Z,56.2
2022-12-07T09:49:59.317Z,54.4
2022-12-07T09:51:15.559Z,61
2022-12-07T09:52:31.812Z,55.2
2022-12-07T09:53:48.049Z,58.6
2022-12-07T09:55:04.277Z,57.2
2022-12-07T09:56:20.519Z,57.5
2022-12-07T09:57:35.783Z,62
2022-12-07T09:58:52.022Z,64.1
2022-12-07T10:00:08.257Z,61.8
2022-12-07T10:01:24.503Z,66.3
2022-12-07T10:02:40.744Z,59.4
2022-12-07T10:03:56.974Z,60.2
2022-12-07T10:05:13.216Z,60.7
2022-12-07T10:06:29.464Z,60.1
2022-12-07T10:07:45.688Z,57.5
2022-12-07T10:09:01.941Z,64.6
2022-12-07T10:10:18.186Z,64.6
2022-12-07T10:11:34.417Z,59.2
2022-12-07T10:12:50.649Z,58.4
2022-12-07T10:14:05.902Z,61.5
2022-12-07T10:15:22.155Z,58.6
2022-12-07T10:16:38.384Z,59.1
2022-12-07T10:17:54.635Z,60.2
2022-12-07T10:19:10.860Z,56.2
2022-12-07T10:20:27.106Z,55.2
2022-12-07T10:21:43.345Z,58.8
2022-12-07T10:22:59.590Z,55.9
2022-12-07T10:24:15.822Z,58
2022-12-07T10:25:32.077Z,54.4
2022-12-07T10:26:48.305Z,58.9
2022-12-07T10:28:04.562Z,56
2022-12-07T10:29:20.793Z,55.5
2022-12-07T10:30:36.040Z,56.3
2022-12-07T10:31:52.287Z,59.1
2022-12-07T10:33:08.525Z,58.9
2022-12-07T10:34:24.777Z,58.8
2022-12-07T10:35:41.003Z,59.4
2022-12-07T10:36:57.236Z,57.5
2022-12-07T10:38:13.479Z,58.9
2022-12-07T10:39:29.714Z,55.4
2022-12-07T10:40:45.968Z,57.3
2022-12-07T10:42:02.202Z,55.5
2022-12-07T10:43:18.437Z,58.3
2022-12-07T10:44:34.685Z,54.6
2022-12-07T10:45:50.923Z,54.6
2022-12-07T10:47:06.191Z,58.1
2022-12-07T10:48:22.418Z,65.7
2022-12-07T10:49:38.658Z,59.1
2022-12-07T10:50:54.915Z,63.6
2022-12-07T10:52:11.137Z,54.1
2022-12-07T10:53:27.375Z,55.1
2022-12-07T10:54:43.611Z,54.3
2022-12-07T10:57:16.107Z,56
2022-12-07T10:58:32.354Z,57.5
2022-12-07T10:59:48.570Z,60.1
2022-12-07T11:01:04.822Z,56
2022-12-07T11:02:21.067Z,55.5
2022-12-07T11:03:36.318Z,60.1
2022-12-07T11:04:52.548Z,57.5
2022-12-07T11:06:08.786Z,58.9
2022-12-07T11:07:25.032Z,55.7
2022-12-07T11:08:41.267Z,54.9
2022-12-07T11:09:57.511Z,63
2022-12-07T11:11:13.758Z,58.6
2022-12-07T11:12:29.985Z,56
2022-12-07T11:13:46.243Z,58.1
2022-12-07T11:15:02.471Z,57.8
2022-12-07T11:16:18.710Z,59.6
2022-12-07T11:17:34.952Z,65
2022-12-07T11:18:51.189Z,54.6
2022-12-07T11:20:06.458Z,55.4
2022-12-07T11:21:22.691Z,56.7
2022-12-07T11:22:38.927Z,59.2
2022-12-07T11:23:55.162Z,58.4
2022-12-07T11:25:11.401Z,54.6
2022-12-07T11:26:27.648Z,60.1
2022-12-07T11:27:43.888Z,53.3
2022-12-07T11:29:00.131Z,56.3
2022-12-07T11:30:16.367Z,54.9
2022-12-07T11:31:32.603Z,56.8
2022-12-07T11:32:48.838Z,58.1
2022-12-07T11:34:05.075Z,55.1
2022-12-07T11:35:21.317Z,54.4
2022-12-07T11:36:36.589Z,54.4
2022-12-07T11:37:52.823Z,56
2022-12-07T11:39:09.065Z,64.9
2022-12-07T11:40:25.297Z,58.8
2022-12-07T11:41:41.544Z,54.9
2022-12-07T11:42:57.781Z,55.9
2022-12-07T11:44:14.030Z,58
2022-12-07T11:45:30.258Z,58
2022-12-07T11:46:46.510Z,55.5
2022-12-07T11:48:02.737Z,55.1
2022-12-07T11:49:18.975Z,58.9
2022-12-07T11:50:35.229Z,60.4
2022-12-07T11:51:51.465Z,56.2
2022-12-07T11:53:06.725Z,60.2
2022-12-07T11:54:22.961Z,58
2022-12-07T11:55:39.197Z,58
2022-12-07T11:56:55.447Z,58.6
2022-12-07T11:58:11.681Z,57.5
2022-12-07T11:59:27.919Z,58.6
2022-12-07T12:00:44.165Z,59.4
2022-12-07T12:02:00.396Z,59.7
2022-12-07T12:03:16.637Z,58.6
2022-12-07T12:04:32.877Z,60.9
2022-12-07T12:05:49.116Z,68.9
2022-12-07T12:07:05.358Z,55.9
2022-12-07T12:08:21.585Z,64.7
2022-12-07T12:09:36.855Z,66.3
2022-12-07T12:10:53.101Z,56.7
2022-12-07T12:12:09.337Z,63.6
2022-12-07T12:13:25.572Z,57.6
2022-12-07T12:14:41.809Z,56
2022-12-07T12:15:58.051Z,58.1
2022-12-07T12:17:14.304Z,57
2022-12-07T12:18:30.526Z,57.8
2022-12-07T12:19:46.773Z,57
2022-12-07T12:21:03.015Z,61.3
2022-12-07T12:22:19.252Z,57.2
2022-12-07T12:23:35.485Z,58
2022-12-07T12:24:51.725Z,58.3
2022-12-07T12:26:07.002Z,56.8
2022-12-07T12:27:23.218Z,55.9
2022-12-07T12:28:39.463Z,59.4
2022-12-07T12:29:55.704Z,62.5
2022-12-07T12:31:11.938Z,55.5
2022-12-07T12:32:28.189Z,54.6
2022-12-07T12:33:43.447Z,56.7
2022-12-07T12:34:59.677Z,63.1
2022-12-07T12:36:15.930Z,63.9
2022-12-07T12:37:32.166Z,56.2
2022-12-07T12:38:48.404Z,53.8
2022-12-07T12:40:04.644Z,55.5
2022-12-07T12:41:20.897Z,60.5
2022-12-07T12:42:37.119Z,56.8
2022-12-07T12:43:53.359Z,56.8
2022-12-07T12:45:09.612Z,54.1
2022-12-07T12:46:25.847Z,60.4
2022-12-07T12:47:42.086Z,54.6
2022-12-07T12:48:58.331Z,57
2022-12-07T12:50:13.576Z,60.4
2022-12-07T12:51:29.818Z,56.7
2022-12-07T12:52:46.074Z,53
2022-12-07T12:54:02.304Z,62.1
2022-12-07T12:55:18.531Z,59.4
2022-12-07T12:56:34.780Z,55.5
2022-12-07T12:57:51.015Z,55.7
2022-12-07T12:59:07.251Z,60.5
2022-12-07T13:00:23.513Z,53.1
2022-12-07T13:01:39.731Z,55.2
2022-12-07T13:02:55.992Z,58.1
2022-12-07T13:04:12.218Z,55.9
2022-12-07T13:05:28.462Z,59.9
2022-12-07T13:06:43.722Z,58
2022-12-07T13:07:59.967Z,56.8
2022-12-07T13:09:16.199Z,58.6
2022-12-07T13:10:32.441Z,58.8
2022-12-07T13:11:48.676Z,58
2022-12-07T13:13:04.918Z,58.4
2022-12-07T13:14:21.165Z,55.1
2022-12-07T13:15:37.401Z,57.2
2022-12-07T13:16:53.630Z,56
2022-12-07T13:18:09.879Z,54.3
2022-12-07T13:19:26.118Z,58
2022-12-07T13:20:42.352Z,55.2
2022-12-07T13:21:58.600Z,59.7
2022-12-07T13:23:13.868Z,59.7
2022-12-07T13:24:30.089Z,58.9
2022-12-07T13:25:46.329Z,56.3
2022-12-07T13:27:02.589Z,54.1
2022-12-07T13:28:18.823Z,55.4
2022-12-07T13:29:35.049Z,56.8
2022-12-07T13:30:51.285Z,58.1
2022-12-07T13:32:07.527Z,59.2
2022-12-07T13:33:23.770Z,52.3
2022-12-07T13:34:40.003Z,59.7
2022-12-07T13:35:56.242Z,58.3
2022-12-07T13:37:12.498Z,54.4
2022-12-07T13:38:28.729Z,56
2022-12-07T13:39:43.977Z,61.8
2022-12-07T13:41:00.228Z,62.6
2022-12-07T13:42:16.462Z,55.7
2022-12-07T13:43:32.704Z,60.4
2022-12-07T13:44:48.945Z,57.5
2022-12-07T13:46:05.197Z,60.5
2022-12-07T13:47:21.438Z,57
2022-12-07T13:48:37.684Z,59.7
2022-12-07T13:49:53.897Z,59.2
2022-12-07T13:51:10.157Z,57.8
2022-12-07T13:52:26.392Z,55.2
2022-12-07T13:53:42.620Z,58
2022-12-07T13:54:58.870Z,61
2022-12-07T13:56:14.133Z,63.1
2022-12-07T13:57:30.363Z,66.5
2022-12-07T13:58:46.606Z,83.1
2022-12-07T14:00:02.846Z,73.1
2022-12-07T14:01:19.094Z,78.7
2022-12-07T14:02:35.314Z,76
2022-12-07T14:03:51.571Z,74.1
2022-12-07T14:05:07.807Z,71.5
2022-12-07T14:06:24.035Z,72.8
2022-12-07T14:07:40.298Z,72.8
2022-12-07T14:08:56.523Z,67.3
2022-12-07T14:10:12.776Z,67.8
2022-12-07T14:11:29.007Z,62.3
2022-12-07T14:12:45.368Z,59.4
2022-12-07T14:14:01.620Z,62.8
2022-12-07T14:15:17.843Z,60.7
2022-12-07T14:16:34.089Z,62
2022-12-07T14:17:50.318Z,60.9
2022-12-07T14:19:06.555Z,64.6
2022-12-07T14:20:22.804Z,60.1
2022-12-07T14:21:39.037Z,68.4
2022-12-07T14:22:55.299Z,59.4
2022-12-07T14:24:11.526Z,75.8
2022-12-07T14:25:27.753Z,79.1
2022-12-07T14:26:44.011Z,57.5
2022-12-07T14:28:00.241Z,57.8
2022-12-07T14:29:15.503Z,58.9
2022-12-07T14:30:31.735Z,59.4
2022-12-07T14:31:47.978Z,60.9
2022-12-07T14:33:04.218Z,59.4
2022-12-07T14:34:20.472Z,60.9
2022-12-07T14:35:36.687Z,61.7
2022-12-07T14:36:52.937Z,58
2022-12-07T14:38:09.192Z,90.8
2022-12-07T14:39:25.415Z,59.4
2022-12-07T14:40:41.650Z,58
2022-12-07T14:41:57.913Z,58.1
2022-12-07T14:43:14.137Z,83.7
2022-12-07T14:44:30.370Z,62.6
2022-12-07T14:45:45.643Z,56.8
2022-12-07T14:47:01.889Z,60.9
2022-12-07T14:48:18.112Z,59.7
2022-12-07T14:49:34.358Z,60.1
2022-12-07T14:50:50.598Z,59.2
2022-12-07T14:52:06.838Z,56.8
2022-12-07T14:53:23.078Z,59.4
2022-12-07T14:54:39.302Z,58.1
2022-12-07T14:55:55.563Z,59.7
2022-12-07T14:57:11.788Z,57.5
2022-12-07T14:58:28.030Z,57.3
2022-12-07T14:59:44.271Z,57.2
2022-12-07T15:01:00.511Z,53.8
2022-12-07T15:02:15.761Z,57.2
2022-12-07T15:03:32.013Z,54.4
2022-12-07T15:04:48.257Z,60.2
2022-12-07T15:06:04.489Z,59.6
2022-12-07T15:07:20.728Z,62.5
2022-12-07T15:08:36.959Z,59.7
2022-12-07T15:09:53.197Z,66.3
2022-12-07T15:11:09.447Z,58.9
2022-12-07T15:12:25.691Z,59.6
2022-12-07T15:13:41.935Z,56
2022-12-07T15:14:58.161Z,62.6
2022-12-07T15:16:14.408Z,55.9
2022-12-07T15:17:30.643Z,60.9
2022-12-07T15:18:45.890Z,59.7
2022-12-07T15:20:02.135Z,57.5
2022-12-07T15:21:18.399Z,57.3
2022-12-07T15:22:34.623Z,56.5
2022-12-07T15:23:50.860Z,57.8
2022-12-07T15:25:07.102Z,57
2022-12-07T15:26:23.338Z,60.1
2022-12-07T15:27:39.583Z,59.2
2022-12-07T15:28:55.818Z,55.2
2022-12-07T15:30:12.059Z,60.1
2022-12-07T15:31:28.310Z,60.5
2022-12-07T15:32:44.552Z,57.6
2022-12-07T15:34:00.781Z,56.2
2022-12-07T15:35:16.035Z,58
2022-12-07T15:36:32.330Z,61.7
2022-12-07T15:37:48.558Z,60.9
2022-12-07T15:39:04.806Z,57.3
2022-12-07T15:40:21.043Z,56.8
2022-12-07T15:41:37.353Z,58.4
2022-12-07T15:42:53.632Z,56.5
2022-12-07T15:44:09.929Z,56.2
2022-12-07T15:45:26.223Z,60.5
2022-12-07T15:46:42.526Z,57.3
2022-12-07T15:47:58.817Z,59.1
2022-12-07T15:49:15.105Z,57.3
2022-12-07T15:50:31.408Z,58.4
2022-12-07T15:51:46.712Z,60.7
2022-12-07T15:53:03.007Z,59.1
2022-12-07T15:54:19.285Z,63.9
2022-12-07T15:55:35.583Z,57.3
2022-12-07T15:56:51.890Z,60.7
2022-12-07T15:58:08.173Z,57.3
2022-12-07T15:59:24.478Z,55.5
2022-12-07T16:00:40.768Z,58.6
2022-12-07T16:01:57.067Z,58.6
2022-12-07T16:03:13.347Z,57.6
2022-12-07T16:04:29.640Z,56.8
2022-12-07T16:05:45.937Z,57.8
2022-12-07T16:07:02.236Z,60.1
2022-12-07T16:08:17.535Z,55.1
2022-12-07T16:09:33.832Z,56.3
2022-12-07T16:10:50.126Z,55.5
2022-12-07T16:12:06.432Z,57.6
2022-12-07T16:13:22.721Z,57.6
2022-12-07T16:14:39.015Z,55.5
2022-12-07T16:15:55.314Z,55.5
2022-12-07T16:17:11.602Z,56.8
2022-12-07T16:18:27.894Z,60.4
2022-12-07T16:19:44.184Z,58.3
2022-12-07T16:21:00.484Z,63.8
2022-12-07T16:22:16.776Z,58.4
2022-12-07T16:23:33.072Z,57
2022-12-07T16:24:49.481Z,57.5
2022-12-07T16:26:05.786Z,63.9
2022-12-07T16:27:22.066Z,58.8
2022-12-07T16:28:38.357Z,58.9
2022-12-07T16:29:54.669Z,61.2
2022-12-07T16:31:10.944Z,63.6
2022-12-07T16:32:27.257Z,61
2022-12-07T16:33:43.541Z,62.1
2022-12-07T16:34:59.832Z,60.5
2022-12-07T16:36:16.123Z,61
2022-12-07T16:37:32.425Z,62.5
2022-12-07T16:38:48.707Z,58.8
2022-12-07T16:40:05.009Z,57.5
2022-12-07T16:41:20.324Z,58.9
2022-12-07T16:42:36.607Z,58.8
2022-12-07T16:43:52.908Z,61
2022-12-07T16:45:09.196Z,55.5
2022-12-07T16:46:25.493Z,55.7
2022-12-07T16:47:41.792Z,56.3
2022-12-07T16:48:57.104Z,59.4
2022-12-07T16:50:13.400Z,57
2022-12-07T16:51:29.696Z,58.6
2022-12-07T16:52:45.983Z,61.7
2022-12-07T16:54:02.285Z,59.7
2022-12-07T16:55:18.585Z,57.2
2022-12-07T16:56:34.865Z,57.2
2022-12-07T16:57:51.168Z,57.2
2022-12-07T16:59:07.458Z,60.7
2022-12-07T17:00:23.746Z,56.3
2022-12-07T17:01:40.041Z,54.9
2022-12-07T17:02:56.353Z,55.2
2022-12-07T17:04:12.637Z,57.3
2022-12-07T17:05:27.940Z,57.5